Time;durP1;ratioP1;P1;durP2;ratioP2;P2;SDS_P1;SDS_P2;PMS_P1;PMS_P2;Temp;Humidity;BMP_temperature;BMP_pressure;BME280_temperature;BME280_humidity;BME280_pressure;Samples;Min_cycle;Max_cycle;Signal;HPM_P1;HPM_P2
2021/04/26 00:00:36;;;;;;;7.05;3.72;;;13.30;99.90;;;;;;6339582;22;20026;-82
2021/04/26 00:03:03;;;;;;;7.38;3.35;;;13.30;99.90;;;;;;6339531;22;20022;-82
2021/04/26 00:05:29;;;;;;;6.70;4.10;;;13.20;99.90;;;;;;6339453;22;20079;-83
2021/04/26 00:07:56;;;;;;;7.93;4.22;;;13.20;99.90;;;;;;6339487;22;20007;-78
2021/04/26 00:10:23;;;;;;;7.53;3.80;;;13.10;99.90;;;;;;6339396;22;20002;-77
2021/04/26 00:12:49;;;;;;;7.25;4.00;;;13.10;99.90;;;;;;6339254;22;20325;-83
2021/04/26 00:15:23;;;;;;;8.20;4.32;;;13.10;99.90;;;;;;6339472;22;20437;-82
2021/04/26 00:17:50;;;;;;;9.13;5.20;;;13.10;99.90;;;;;;6339498;22;20002;-77
2021/04/26 00:20:17;;;;;;;6.32;3.92;;;13.10;99.90;;;;;;6339407;22;20049;-78
2021/04/26 00:22:43;;;;;;;6.32;4.53;;;13.10;99.90;;;;;;6341385;22;19998;-83
2021/04/26 00:25:10;;;;;;;9.23;5.10;;;13.10;99.90;;;;;;6341465;22;20002;-81
2021/04/26 00:27:37;;;;;;;5.97;4.30;;;13.10;99.90;;;;;;6339244;22;20030;-83
2021/04/26 00:30:13;;;;;;;7.60;3.67;;;13.10;99.90;;;;;;6339287;22;20007;-83
2021/04/26 00:32:40;;;;;;;5.88;3.70;;;13.10;99.90;;;;;;6339076;22;20052;-83
2021/04/26 00:35:07;;;;;;;6.07;3.30;;;13.10;99.90;;;;;;6339127;22;20042;-81
2021/04/26 00:37:33;;;;;;;9.60;4.43;;;13.00;99.90;;;;;;6339159;22;20005;-76
2021/04/26 00:39:59;;;;;;;10.10;4.05;;;13.00;99.90;;;;;;6311650;22;20078;-77
2021/04/26 00:42:25;;;;;;;9.55;5.25;;;13.00;99.90;;;;;;6339278;22;20038;-76
2021/04/26 00:44:51;;;;;;;12.52;5.35;;;13.00;99.90;;;;;;6338985;22;20003;-83
2021/04/26 00:47:17;;;;;;;9.80;5.13;;;12.90;99.90;;;;;;6339027;22;20444;-77
2021/04/26 00:49:43;;;;;;;8.63;3.83;;;13.00;99.90;;;;;;6311507;22;19999;-82
2021/04/26 00:52:09;;;;;;;7.38;3.30;;;12.90;99.90;;;;;;6339060;22;20069;-83
2021/04/26 00:54:36;;;;;;;7.78;3.95;;;12.90;99.90;;;;;;6339164;22;20019;-81
2021/04/26 00:57:02;;;;;;;6.88;3.90;;;12.90;99.90;;;;;;6339050;22;19999;-82
2021/04/26 00:59:29;;;;;;;6.75;4.15;;;12.90;99.90;;;;;;6338622;22;20026;-83
2021/04/26 01:01:55;;;;;;;5.30;3.70;;;12.90;99.90;;;;;;6311335;22;20030;-82
2021/04/26 01:04:21;;;;;;;9.00;3.80;;;12.80;99.90;;;;;;6311229;22;20010;-82
2021/04/26 01:06:48;;;;;;;7.50;3.83;;;12.80;99.90;;;;;;6339131;22;20003;-78
2021/04/26 01:09:14;;;;;;;6.53;3.78;;;12.80;99.90;;;;;;6338576;22;20269;-77
2021/04/26 01:11:58;;;;;;;5.07;3.72;;;12.80;99.90;;;;;;6311263;22;20093;-78
2021/04/26 01:14:37;;;;;;;7.90;3.58;;;12.80;99.90;;;;;;6311126;22;20054;-82
2021/04/26 01:17:23;;;;;;;7.72;4.35;;;12.80;99.90;;;;;;6311257;22;20102;-77
2021/04/26 01:20:05;;;;;;;6.10;3.92;;;12.80;99.90;;;;;;6311179;22;20014;-83
2021/04/26 01:23:01;;;;;;;6.65;3.88;;;12.80;99.90;;;;;;6311046;22;20052;-76
2021/04/26 01:25:29;;;;;;;5.47;3.63;;;12.80;99.90;;;;;;6338639;22;20003;-81
2021/04/26 01:28:28;;;;;;;5.70;4.15;;;12.80;99.90;;;;;;6338746;22;19995;-82
2021/04/26 01:31:19;;;;;;;7.40;3.03;;;12.80;99.90;;;;;;6310755;22;20433;-77
2021/04/26 01:33:55;;;;;;;5.82;3.60;;;12.70;99.90;;;;;;6338768;22;20441;-82
2021/04/26 01:36:40;;;;;;;6.57;3.50;;;12.70;99.90;;;;;;6310965;22;20037;-78
2021/04/26 01:39:07;;;;;;;6.00;3.15;;;12.60;99.90;;;;;;6315963;22;20124;-80
2021/04/26 01:41:36;;;;;;;4.75;3.55;;;12.60;99.90;;;;;;6311253;22;20128;-83
2021/04/26 01:44:03;;;;;;;6.88;3.40;;;12.60;99.90;;;;;;6338510;22;20006;-77
2021/04/26 01:46:31;;;;;;;6.55;3.25;;;12.50;99.90;;;;;;6338715;22;20445;-83
2021/04/26 01:48:59;;;;;;;5.50;3.65;;;12.50;99.90;;;;;;6310845;22;20341;-76
2021/04/26 01:51:29;;;;;;;5.90;3.28;;;12.50;99.90;;;;;;6311006;22;20009;-80
2021/04/26 01:53:55;;;;;;;6.88;3.28;;;12.40;99.90;;;;;;6310934;22;20018;-76
2021/04/26 01:56:23;;;;;;;5.28;3.28;;;12.40;99.90;;;;;;6310754;22;20041;-77
2021/04/26 01:58:55;;;;;;;11.65;5.22;;;12.30;99.90;;;;;;6305541;22;20019;-83
2021/04/26 02:01:24;;;;;;;8.27;3.92;;;12.30;99.90;;;;;;6307407;22;20008;-77
2021/04/26 02:04:05;;;;;;;6.35;3.83;;;12.30;99.90;;;;;;6305622;22;20013;-77
2021/04/26 02:06:49;;;;;;;7.25;4.18;;;12.30;99.90;;;;;;6305735;22;20007;-76
2021/04/26 02:09:31;;;;;;;;;;;12.30;99.90;;;;;;6308662;22;20015;-82
2021/04/26 02:12:04;;;;;;;8.52;3.78;;;12.20;99.90;;;;;;6305774;22;19938;-83
2021/04/26 02:14:36;;;;;;;7.10;3.60;;;12.20;99.90;;;;;;6305498;22;20026;-83
2021/04/26 02:17:04;;;;;;;6.63;3.42;;;12.20;99.90;;;;;;6307142;22;20083;-82
2021/04/26 02:19:31;;;;;;;7.13;4.15;;;12.30;99.90;;;;;;6306973;22;20104;-80
2021/04/26 02:21:57;;;;;;;6.05;3.65;;;12.30;99.90;;;;;;6305361;22;20003;-82
2021/04/26 02:24:24;;;;;;;6.15;3.58;;;12.30;99.90;;;;;;6305446;22;20341;-76
2021/04/26 02:26:50;;;;;;;4.97;3.28;;;12.40;99.90;;;;;;6305464;22;20080;-82
2021/04/26 02:29:16;;;;;;;7.47;3.38;;;12.40;99.90;;;;;;6307014;22;20007;-82
2021/04/26 02:31:49;;;;;;;5.72;3.60;;;12.40;99.90;;;;;;6305650;22;20011;-82
2021/04/26 02:34:26;;;;;;;;;;;12.30;99.90;;;;;;6307685;22;20091;-79
2021/04/26 02:37:14;;;;;;;4.78;2.90;;;12.30;99.90;;;;;;6305322;22;19902;-77
2021/04/26 02:39:44;;;;;;;6.10;3.65;;;12.30;99.90;;;;;;6244533;22;20007;-82
2021/04/26 02:42:13;;;;;;;6.65;4.10;;;12.20;99.90;;;;;;6305338;22;20056;-82
2021/04/26 02:44:44;;;;;;;6.68;3.75;;;12.20;99.90;;;;;;6305254;22;20014;-83
2021/04/26 02:47:17;;;;;;;6.65;3.47;;;12.10;99.90;;;;;;6305343;22;20425;-82
2021/04/26 02:50:03;;;;;;;9.20;3.60;;;12.10;99.90;;;;;;6305492;22;20007;-76
2021/04/26 02:52:33;;;;;;;6.22;3.30;;;12.10;99.90;;;;;;6308226;22;20434;-85
2021/04/26 02:55:03;;;;;;;4.30;3.00;;;12.10;99.90;;;;;;6308418;22;20323;-83
2021/04/26 02:57:33;;;;;;;5.72;3.42;;;12.10;99.90;;;;;;6305145;22;20031;-82
2021/04/26 03:00:04;;;;;;;5.55;3.30;;;12.10;99.90;;;;;;6337539;22;20101;-81
2021/04/26 03:02:32;;;;;;;4.80;3.33;;;12.10;99.90;;;;;;6310299;22;20006;-77
2021/04/26 03:05:04;;;;;;;6.55;2.90;;;12.10;99.90;;;;;;6310352;22;20002;-77
2021/04/26 03:07:31;;;;;;;5.18;3.17;;;12.10;99.90;;;;;;6310363;22;20345;-82
2021/04/26 03:10:00;;;;;;;6.45;3.03;;;12.00;99.90;;;;;;6310686;22;20006;-77
2021/04/26 03:12:30;;;;;;;7.18;3.20;;;12.10;99.90;;;;;;6338028;22;20018;-82
2021/04/26 03:14:56;;;;;;;5.82;2.95;;;12.00;99.90;;;;;;6310336;22;20235;-83
2021/04/26 03:17:24;;;;;;;5.07;2.53;;;12.00;99.90;;;;;;6310449;22;20089;-83
2021/04/26 03:20:06;;;;;;;5.93;2.83;;;12.00;99.90;;;;;;6310377;22;20014;-82
2021/04/26 03:22:41;;;;;;;5.78;3.03;;;12.00;99.90;;;;;;6310373;22;19999;-77
2021/04/26 03:25:08;;;;;;;5.93;3.10;;;11.90;99.90;;;;;;6310535;22;20007;-76
2021/04/26 03:27:35;;;;;;;6.05;3.20;;;12.00;99.90;;;;;;6310713;22;20003;-82
2021/04/26 03:30:04;;;;;;;7.72;3.42;;;12.00;99.40;;;;;;6310139;22;20089;-81
2021/04/26 03:32:38;;;;;;;16.55;4.05;;;12.00;99.20;;;;;;6311758;22;20460;-83
2021/04/26 03:35:09;;;;;;;5.40;2.90;;;12.00;99.10;;;;;;6340106;22;20018;-82
2021/04/26 03:37:44;;;;;;;9.20;3.55;;;12.00;99.00;;;;;;6312364;22;19999;-83
2021/04/26 03:40:17;;;;;;;6.78;2.75;;;12.00;99.10;;;;;;6312153;22;20007;-76
2021/04/26 03:42:44;;;;;;;6.68;2.65;;;12.00;99.30;;;;;;6312408;22;20341;-83
2021/04/26 03:45:14;;;;;;;4.47;3.13;;;12.00;99.50;;;;;;6312252;22;20089;-79
2021/04/26 03:47:40;;;;;;;5.35;3.28;;;11.90;99.60;;;;;;6339650;22;20014;-77
2021/04/26 03:50:24;;;;;;;8.02;3.70;;;11.90;99.50;;;;;;6343967;22;20011;-77
2021/04/26 03:53:08;;;;;;;6.97;3.60;;;12.00;99.50;;;;;;6339596;22;20018;-77
2021/04/26 03:56:07;;;;;;;6.25;3.15;;;12.00;99.40;;;;;;6314333;22;20019;-83
2021/04/26 03:58:33;;;;;;;5.88;2.75;;;12.00;99.40;;;;;;6339328;22;20011;-76
2021/04/26 04:00:59;;;;;;;6.55;3.63;;;11.90;99.40;;;;;;6339712;22;20057;-82
2021/04/26 04:03:25;;;;;;;4.70;2.75;;;11.90;99.50;;;;;;6312189;22;20011;-83
2021/04/26 04:05:53;;;;;;;3.92;2.13;;;11.80;99.70;;;;;;6312223;22;20009;-78
2021/04/26 04:08:21;;;;;;;7.85;2.83;;;11.80;99.80;;;;;;6348663;22;20014;-83
2021/04/26 04:11:07;;;;;;;3.75;2.47;;;11.80;99.80;;;;;;6275803;22;20005;-76
2021/04/26 04:13:35;;;;;;;5.00;2.70;;;11.70;99.90;;;;;;6346229;22;20026;-77
2021/04/26 04:16:02;;;;;;;4.88;2.65;;;11.70;99.90;;;;;;6339180;22;20009;-77
2021/04/26 04:18:28;;;;;;;7.10;2.65;;;11.70;99.90;;;;;;6339196;22;20496;-82
2021/04/26 04:20:54;;;;;;;6.25;3.15;;;11.70;99.90;;;;;;6339323;22;19999;-83
2021/04/26 04:23:20;;;;;;;6.18;3.03;;;11.70;99.90;;;;;;6311797;22;20051;-83
2021/04/26 04:25:46;;;;;;;5.32;2.47;;;11.70;99.90;;;;;;6339352;22;20078;-76
2021/04/26 04:28:12;;;;;;;5.32;2.70;;;11.70;99.90;;;;;;6339336;22;20007;-82
2021/04/26 04:30:42;;;;;;;5.40;2.90;;;11.80;99.90;;;;;;6311857;22;20006;-77
2021/04/26 04:33:27;;;;;;;8.25;3.92;;;11.80;99.90;;;;;;6339038;22;20017;-77
2021/04/26 04:36:12;;;;;;;8.40;4.80;;;11.90;99.90;;;;;;6339653;22;20034;-82
2021/04/26 04:38:56;;;;;;;7.32;3.40;;;12.00;99.90;;;;;;6340349;22;20018;-81
2021/04/26 04:41:41;;;;;;;9.30;3.67;;;12.10;99.90;;;;;;6339184;22;20025;-83
2021/04/26 04:44:07;;;;;;;9.55;4.10;;;12.20;99.90;;;;;;6338477;22;20007;-77
2021/04/26 04:46:33;;;;;;;8.15;3.72;;;12.20;99.90;;;;;;6311422;22;20034;-77
2021/04/26 04:49:10;;;;;;;7.40;3.25;;;12.20;99.90;;;;;;6311712;22;20089;-77
2021/04/26 04:51:37;;;;;;;9.02;4.03;;;12.30;99.90;;;;;;6311527;22;20332;-83
2021/04/26 04:54:08;;;;;;;7.82;3.63;;;12.30;99.90;;;;;;6311169;22;20352;-77
2021/04/26 04:56:54;;;;;;;8.82;3.53;;;12.40;99.90;;;;;;6311479;22;20005;-83
2021/04/26 04:59:21;;;;;;;11.65;3.88;;;12.30;99.90;;;;;;6282521;22;20019;-84
2021/04/26 05:01:54;;;;;;;5.63;3.28;;;12.40;99.90;;;;;;6311591;22;20002;-77
2021/04/26 05:04:39;;;;;;;8.50;3.70;;;12.50;99.90;;;;;;6339010;22;20065;-83
2021/04/26 05:07:40;;;;;;;11.68;3.85;;;12.50;99.90;;;;;;6338688;22;20445;-78
2021/04/26 05:10:24;;;;;;;9.77;5.20;;;12.60;99.90;;;;;;6338977;22;20041;-83
2021/04/26 05:13:11;;;;;;;9.82;4.07;;;12.70;99.90;;;;;;6311557;22;20073;-84
2021/04/26 05:15:49;;;;;;;6.80;4.00;;;12.80;99.90;;;;;;6339353;22;20137;-77
2021/04/26 05:18:15;;;;;;;7.78;3.45;;;12.90;99.90;;;;;;6339037;22;20010;-76
2021/04/26 05:20:42;;;;;;;5.78;3.40;;;13.00;99.90;;;;;;6339215;22;20002;-83
2021/04/26 05:23:10;;;;;;;3.83;2.20;;;13.10;99.90;;;;;;6319092;22;20064;-78
2021/04/26 05:25:37;;;;;;;6.68;2.53;;;13.20;99.90;;;;;;6311404;22;20085;-84
2021/04/26 05:28:04;;;;;;;4.03;2.45;;;13.30;99.90;;;;;;6311194;22;20007;-84
2021/04/26 05:30:31;;;;;;;3.88;2.17;;;13.40;99.90;;;;;;6338719;22;19999;-84
2021/04/26 05:33:00;;;;;;;3.88;2.05;;;13.50;99.90;;;;;;6338454;22;20006;-84
2021/04/26 05:35:46;;;;;;;3.28;2.10;;;13.60;99.90;;;;;;6337969;22;20349;-77
2021/04/26 05:38:17;;;;;;;5.28;2.40;;;13.70;99.90;;;;;;6311260;22;19999;-77
2021/04/26 05:40:47;;;;;;;5.28;2.70;;;13.80;99.90;;;;;;6285581;22;20003;-84
2021/04/26 05:43:13;;;;;;;4.78;2.72;;;13.90;99.90;;;;;;6338818;22;20060;-84
2021/04/26 05:45:41;;;;;;;4.72;2.38;;;14.00;99.90;;;;;;6338596;22;20362;-84
2021/04/26 05:48:12;;;;;;;5.82;2.00;;;14.00;99.90;;;;;;6311084;22;20030;-84
2021/04/26 05:50:39;;;;;;;7.30;2.45;;;14.20;99.90;;;;;;6338590;22;20003;-83
2021/04/26 05:53:05;;;;;;;2.83;2.05;;;14.20;99.90;;;;;;6338532;22;20424;-84
2021/04/26 05:55:32;;;;;;;8.57;2.45;;;14.30;99.90;;;;;;6338634;22;20333;-84
2021/04/26 05:57:58;;;;;;;5.43;2.20;;;14.40;99.90;;;;;;6338380;22;19995;-84
2021/04/26 06:00:24;;;;;;;5.20;2.40;;;14.40;99.90;;;;;;6338686;22;20073;-78
2021/04/26 06:02:50;;;;;;;4.68;2.53;;;14.50;99.90;;;;;;6338671;22;20007;-84
2021/04/26 06:05:16;;;;;;;5.18;3.08;;;14.50;99.90;;;;;;6338653;22;20299;-79
2021/04/26 06:07:42;;;;;;;5.13;2.38;;;14.60;99.90;;;;;;6338400;22;20007;-78
2021/04/26 06:10:09;;;;;;;4.50;2.47;;;14.60;99.90;;;;;;6338812;22;20048;-82
2021/04/26 06:12:35;;;;;;;4.07;2.58;;;14.70;99.90;;;;;;6338524;22;20082;-83
2021/04/26 06:15:02;;;;;;;5.97;3.13;;;14.70;99.90;;;;;;6338329;22;20007;-78
2021/04/26 06:17:28;;;;;;;7.20;2.70;;;14.80;99.90;;;;;;6338386;22;20067;-82
2021/04/26 06:19:54;;;;;;;4.78;2.70;;;14.80;99.90;;;;;;6338373;22;20446;-81
2021/04/26 06:22:20;;;;;;;5.32;2.00;;;14.90;99.90;;;;;;6338135;22;19998;-83
2021/04/26 06:24:46;;;;;;;5.73;2.57;;;14.90;99.90;;;;;;6338301;22;20444;-79
2021/04/26 06:27:12;;;;;;;5.40;2.30;;;15.00;99.90;;;;;;6338684;22;20221;-84
2021/04/26 06:29:38;;;;;;;4.53;2.05;;;15.10;99.90;;;;;;6338182;22;20310;-78
2021/04/26 06:32:04;;;;;;;6.95;2.35;;;15.20;99.90;;;;;;6338359;22;20421;-77
2021/04/26 06:34:30;;;;;;;7.20;3.20;;;15.20;99.90;;;;;;6338075;22;20015;-78
2021/04/26 06:36:56;;;;;;;4.38;2.20;;;15.30;99.90;;;;;;6340178;22;20007;-82
2021/04/26 06:39:23;;;;;;;5.63;2.50;;;15.40;99.90;;;;;;6312081;22;20493;-78
2021/04/26 06:41:49;;;;;;;4.70;1.98;;;15.40;99.90;;;;;;6338206;22;20321;-81
2021/04/26 06:44:15;;;;;;;5.28;2.45;;;15.50;98.90;;;;;;6338281;22;20064;-80
2021/04/26 06:46:41;;;;;;;7.50;2.60;;;15.60;98.20;;;;;;6338593;22;20456;-81
2021/04/26 06:49:07;;;;;;;4.93;2.47;;;15.60;98.10;;;;;;6310395;22;20339;-84
2021/04/26 06:51:33;;;;;;;10.90;3.05;;;15.70;98.70;;;;;;6338058;22;19999;-84
2021/04/26 06:53:59;;;;;;;4.45;2.30;;;15.80;99.40;;;;;;6337929;22;20020;-83
2021/04/26 06:56:25;;;;;;;3.88;2.20;;;15.90;99.00;;;;;;6338110;22;20031;-84
2021/04/26 06:58:51;;;;;;;4.85;2.25;;;15.90;98.60;;;;;;6337925;22;20431;-77
2021/04/26 07:01:17;;;;;;;8.32;2.63;;;16.00;98.90;;;;;;6338182;22;19999;-78
2021/04/26 07:03:43;;;;;;;4.60;2.13;;;16.10;98.90;;;;;;6338083;22;19999;-78
2021/04/26 07:06:09;;;;;;;6.78;1.98;;;16.20;97.40;;;;;;6338372;22;20225;-78
2021/04/26 07:08:35;;;;;;;4.60;2.15;;;16.20;97.00;;;;;;6339961;22;20086;-78
2021/04/26 07:11:00;;;;;;;3.63;2.00;;;16.30;97.50;;;;;;6340042;22;19999;-83
2021/04/26 07:13:27;;;;;;;4.95;1.80;;;16.40;97.60;;;;;;6339960;22;20267;-78
2021/04/26 07:15:53;;;;;;;2.67;1.52;;;16.40;97.40;;;;;;6340249;22;20455;-84
2021/04/26 07:18:19;;;;;;;4.35;1.70;;;16.50;96.50;;;;;;6339909;22;20007;-79
2021/04/26 07:20:45;;;;;;;3.28;1.70;;;16.60;96.20;;;;;;6340023;22;20048;-84
2021/04/26 07:23:11;;;;;;;4.50;1.95;;;16.70;96.00;;;;;;6340051;22;20089;-80
2021/04/26 07:25:37;;;;;;;5.00;1.87;;;16.80;95.70;;;;;;6312539;22;20333;-84
2021/04/26 07:28:03;;;;;;;4.35;1.90;;;16.80;94.80;;;;;;6339817;22;20229;-78
2021/04/26 07:30:29;;;;;;;7.07;1.70;;;16.90;95.10;;;;;;6340164;22;20003;-84
2021/04/26 07:32:55;;;;;;;3.05;2.00;;;17.00;94.50;;;;;;6340814;22;20007;-84
2021/04/26 07:35:21;;;;;;;4.32;1.80;;;17.10;94.10;;;;;;6339966;22;20078;-84
2021/04/26 07:37:47;;;;;;;4.82;2.05;;;17.20;94.50;;;;;;6339864;22;20078;-85
2021/04/26 07:40:15;;;;;;;5.32;2.38;;;17.30;94.20;;;;;;6339913;22;20003;-84
2021/04/26 07:42:41;;;;;;;2.58;1.55;;;17.40;92.10;;;;;;6340115;22;20321;-84
2021/04/26 07:45:09;;;;;;;4.30;2.05;;;17.50;91.90;;;;;;6339932;22;20007;-84
2021/04/26 07:47:35;;;;;;;2.90;1.75;;;17.50;91.40;;;;;;6339707;22;20332;-84
2021/04/26 07:50:01;;;;;;;4.18;1.50;;;17.60;90.30;;;;;;6339750;22;20009;-84
2021/04/26 07:52:27;;;;;;;3.72;2.17;;;17.70;90.10;;;;;;6342273;22;20002;-84
2021/04/26 07:54:53;;;;;;;3.47;1.40;;;17.80;88.30;;;;;;6339851;22;20029;-83
2021/04/26 07:57:19;;;;;;;4.53;2.25;;;17.80;87.20;;;;;;6339662;22;20535;-84
2021/04/26 07:59:45;;;;;;;2.50;1.50;;;17.90;85.70;;;;;;6339651;22;20014;-84
2021/04/26 08:02:11;;;;;;;8.60;2.17;;;17.90;86.00;;;;;;6339578;22;19998;-85
2021/04/26 08:04:36;;;;;;;3.78;1.50;;;18.00;87.50;;;;;;6339700;22;20649;-84
2021/04/26 08:07:02;;;;;;;4.63;1.40;;;18.10;86.60;;;;;;6339556;22;20006;-79
2021/04/26 08:09:28;;;;;;;3.78;1.90;;;18.20;86.40;;;;;;6339512;22;20272;-77
2021/04/26 08:11:54;;;;;;;5.00;2.28;;;18.30;85.10;;;;;;6339520;22;19999;-85
2021/04/26 08:14:20;;;;;;;3.83;2.03;;;18.30;85.50;;;;;;6312033;22;20078;-84
2021/04/26 08:16:46;;;;;;;4.07;2.50;;;18.40;84.80;;;;;;6339207;22;20003;-81
2021/04/26 08:19:13;;;;;;;2.53;1.75;;;18.40;84.40;;;;;;6311954;22;20365;-84
2021/04/26 08:21:39;;;;;;;2.90;1.92;;;18.50;84.50;;;;;;6339511;22;19999;-84
2021/04/26 08:24:06;;;;;;;4.45;2.30;;;18.60;85.50;;;;;;6339976;22;20006;-84
2021/04/26 08:26:32;;;;;;;2.45;1.92;;;18.70;86.50;;;;;;6339626;22;20006;-78
2021/04/26 08:28:58;;;;;;;3.33;2.08;;;18.80;83.60;;;;;;6339568;22;20007;-84
2021/04/26 08:31:23;;;;;;;4.43;1.77;;;18.90;81.10;;;;;;6339475;22;19998;-84
2021/04/26 08:33:49;;;;;;;5.43;1.70;;;19.00;80.30;;;;;;6339436;22;20017;-84
2021/04/26 08:36:15;;;;;;;5.40;1.83;;;19.10;79.90;;;;;;6339543;22;20165;-85
2021/04/26 08:38:41;;;;;;;6.00;1.77;;;19.20;80.70;;;;;;6339408;22;20229;-84
2021/04/26 08:41:13;;;;;;;3.50;1.50;;;19.30;77.30;;;;;;6339707;22;20006;-85
2021/04/26 08:43:41;;;;;;;2.70;1.98;;;19.40;78.90;;;;;;6339480;22;20491;-84
2021/04/26 08:46:07;;;;;;;4.88;2.20;;;19.50;79.30;;;;;;6339181;22;19995;-78
2021/04/26 08:48:33;;;;;;;3.72;1.40;;;19.60;77.60;;;;;;6339223;22;20007;-84
2021/04/26 08:51:01;;;;;;;4.47;1.90;;;19.70;76.00;;;;;;6339529;22;20129;-83
2021/04/26 08:53:28;;;;;;;4.13;2.35;;;19.80;75.30;;;;;;6339067;22;20486;-84
2021/04/26 08:55:54;;;;;;;4.40;2.08;;;19.80;76.30;;;;;;6339049;22;20029;-85
2021/04/26 08:58:20;;;;;;;5.03;2.10;;;19.90;78.30;;;;;;6339077;22;19999;-84
2021/04/26 09:00:46;;;;;;;5.63;1.80;;;20.00;78.10;;;;;;6339228;22;20488;-84
2021/04/26 09:03:12;;;;;;;2.47;1.80;;;20.10;78.10;;;;;;6339149;22;20002;-85
2021/04/26 09:05:41;;;;;;;11.32;2.30;;;20.20;76.70;;;;;;6339217;22;20003;-85
2021/04/26 09:08:10;;;;;;;5.80;2.10;;;20.30;77.10;;;;;;6341903;22;20058;-86
2021/04/26 09:10:42;;;;;;;3.08;2.03;;;20.30;77.50;;;;;;6338991;22;20464;-85
2021/04/26 09:13:28;;;;;;;4.38;1.73;;;20.40;76.30;;;;;;6311186;22;20014;-84
2021/04/26 09:15:58;;;;;;;4.45;2.30;;;20.50;75.80;;;;;;6339022;22;20003;-84
2021/04/26 09:19:02;;;;;;;2.85;2.22;;;20.60;76.70;;;;;;6338855;22;20003;-84
2021/04/26 09:21:43;;;;;;;3.83;2.20;;;20.60;74.20;;;;;;6338844;22;20010;-84
2021/04/26 09:24:11;;;;;;;3.38;1.67;;;20.70;75.60;;;;;;6338853;22;20425;-85
2021/04/26 09:26:36;;;;;;;6.15;1.98;;;20.90;75.90;;;;;;6338867;22;20002;-85
2021/04/26 09:29:17;;;;;;;5.53;2.40;;;21.00;75.90;;;;;;6339097;22;20078;-84
2021/04/26 09:32:02;;;;;;;1.60;1.50;;;21.10;76.30;;;;;;6339264;22;20321;-77
2021/04/26 09:34:32;;;;;;;4.25;2.20;;;21.30;75.60;;;;;;6338679;22;20021;-81
2021/04/26 09:37:15;;;;;;;4.40;2.45;;;21.40;76.00;;;;;;6339194;22;20009;-84
2021/04/26 09:40:13;;;;;;;3.83;1.60;;;21.50;74.50;;;;;;6338786;22;20031;-84
2021/04/26 09:42:39;;;;;;;5.97;2.78;;;21.50;75.70;;;;;;6338531;22;20002;-84
2021/04/26 09:45:29;;;;;;;6.63;2.37;;;21.60;76.60;;;;;;6338638;22;19999;-83
2021/04/26 09:48:15;;;;;;;4.03;2.38;;;21.70;74.90;;;;;;6338859;22;20011;-84
2021/04/26 09:50:58;;;;;;;5.78;2.63;;;21.80;74.80;;;;;;6338753;22;19995;-84
2021/04/26 09:53:44;;;;;;;5.28;2.25;;;22.00;74.40;;;;;;6338421;22;20007;-84
2021/04/26 09:56:16;;;;;;;3.70;2.25;;;22.20;75.30;;;;;;6338608;22;20013;-83
2021/04/26 09:58:47;;;;;;;2.53;1.80;;;22.30;73.80;;;;;;6338332;22;20003;-84
2021/04/26 10:01:14;;;;;;;4.18;2.40;;;22.40;71.70;;;;;;6338582;22;20017;-83
2021/04/26 10:03:40;;;;;;;5.53;2.08;;;22.50;72.60;;;;;;6338772;22;20080;-83
2021/04/26 10:06:07;;;;;;;4.85;1.90;;;22.60;71.50;;;;;;6338507;22;20033;-83
2021/04/26 10:08:33;;;;;;;3.35;1.65;;;22.70;71.70;;;;;;6338370;22;20025;-83
2021/04/26 10:10:59;;;;;;;3.13;2.13;;;22.80;72.80;;;;;;6338302;22;20440;-84
2021/04/26 10:13:26;;;;;;;6.88;2.20;;;22.90;73.70;;;;;;6338166;22;20003;-84
2021/04/26 10:16:03;;;;;;;5.05;2.25;;;23.10;73.00;;;;;;6338389;22;20082;-83
2021/04/26 10:18:32;;;;;;;4.40;2.00;;;23.20;72.50;;;;;;6338297;22;20006;-84
2021/04/26 10:20:58;;;;;;;5.70;2.10;;;23.10;71.50;;;;;;6338984;22;19999;-82
2021/04/26 10:23:41;;;;;;;6.47;2.33;;;23.30;71.30;;;;;;6338787;22;20328;-84
2021/04/26 10:26:07;;;;;;;;;;;23.60;71.30;;;;;;6338830;22;20384;-77
2021/04/26 10:28:37;;;;;;;3.80;1.85;;;23.60;70.70;;;;;;6338183;22;19905;-82
2021/04/26 10:31:05;;;;;;;3.90;1.88;;;23.70;69.70;;;;;;6338192;22;20010;-81
2021/04/26 10:34:07;;;;;;;5.05;1.60;;;23.90;69.50;;;;;;6338143;22;20002;-79
2021/04/26 10:36:57;;;;;;;3.67;2.00;;;24.00;67.90;;;;;;6182332;23;20016;-83
2021/04/26 10:39:25;;;;;;;3.55;1.85;;;24.10;65.70;;;;;;6304976;22;20034;-84
2021/04/26 10:41:52;;;;;;;4.43;2.25;;;23.90;66.60;;;;;;6338147;22;20418;-80
2021/04/26 10:44:40;;;;;;;8.20;2.20;;;24.00;67.20;;;;;;6338094;22;20441;-83
2021/04/26 10:47:21;;;;;;;4.22;2.33;;;24.10;67.20;;;;;;6338032;22;20459;-79
2021/04/26 10:50:07;;;;;;;3.03;1.52;;;24.30;66.80;;;;;;6337971;22;20033;-80
2021/04/26 10:52:36;;;;;;;7.07;2.38;;;24.40;67.80;;;;;;6311661;22;20003;-83
2021/04/26 10:55:23;;;;;;;4.28;1.90;;;24.20;65.70;;;;;;6310223;22;20341;-80
2021/04/26 10:57:56;;;;;;;3.67;2.00;;;24.20;66.40;;;;;;6337860;22;20006;-83
2021/04/26 11:00:28;;;;;;;4.25;2.00;;;24.10;65.40;;;;;;6337839;22;20446;-84
2021/04/26 11:02:55;;;;;;;;;;;24.10;65.10;;;;;;6338502;22;19999;-83
2021/04/26 11:05:29;;;;;;;8.60;2.50;;;24.10;66.40;;;;;;6337952;22;19903;-78
2021/04/26 11:10:31;;;;;;;11.70;2.20;;;24.20;65.10;;;;;;6338165;22;20067;-78
2021/04/26 11:12:58;;;;;;;2.58;1.85;;;24.20;65.10;;;;;;6337930;22;20358;-82
2021/04/26 11:15:26;;;;;;;6.13;2.28;;;24.30;65.90;;;;;;6310091;22;20011;-83
2021/04/26 11:17:53;;;;;;;7.05;1.98;;;24.40;64.30;;;;;;6337830;22;20482;-83
2021/04/26 11:20:26;;;;;;;5.32;1.75;;;24.40;64.40;;;;;;6337825;22;20091;-83
2021/04/26 11:22:53;;;;;;;;;;;24.30;63.80;;;;;;6338529;22;20021;-81
2021/04/26 11:25:40;;;;;;;6.80;2.00;;;24.30;64.90;;;;;;6338109;22;19898;-77
2021/04/26 11:28:15;;;;;;;3.45;1.98;;;24.40;65.90;;;;;;6337990;22;20030;-80
2021/04/26 11:30:50;;;;;;;2.70;2.00;;;24.30;64.90;;;;;;6337892;22;20011;-84
2021/04/26 11:33:18;;;;;;;4.47;2.25;;;24.40;66.70;;;;;;6337928;22;20003;-79
2021/04/26 11:36:22;;;;;;;7.10;2.53;;;24.40;65.70;;;;;;6341020;22;20013;-83
2021/04/26 11:38:49;;;;;;;3.70;1.98;;;24.30;66.90;;;;;;6182105;23;20075;-83
2021/04/26 11:41:16;;;;;;;5.40;2.17;;;24.20;66.40;;;;;;6157017;23;20403;-84
2021/04/26 11:43:47;;;;;;;4.10;2.30;;;24.20;66.70;;;;;;6257429;22;19999;-83
2021/04/26 11:46:13;;;;;;;3.38;2.13;;;24.20;66.40;;;;;;6337869;22;20412;-83
2021/04/26 11:48:39;;;;;;;3.72;1.75;;;24.10;66.50;;;;;;6337630;22;20002;-83
2021/04/26 11:51:05;;;;;;;3.90;2.00;;;24.20;67.50;;;;;;6337664;22;20006;-79
2021/04/26 11:53:33;;;;;;;1.90;1.48;;;24.30;67.10;;;;;;6339348;22;20339;-78
2021/04/26 11:56:13;;;;;;;5.82;2.10;;;24.40;67.90;;;;;;6339697;22;19998;-77
2021/04/26 11:58:40;;;;;;;4.40;1.83;;;24.40;66.30;;;;;;6339195;22;20510;-82
2021/04/26 12:01:11;;;;;;;5.30;2.20;;;24.40;68.00;;;;;;6339385;22;20006;-82
2021/04/26 12:03:53;;;;;;;2.28;1.75;;;24.40;67.70;;;;;;6339458;22;20003;-83
2021/04/26 12:06:20;;;;;;;2.53;1.65;;;24.40;67.00;;;;;;6339346;22;20030;-78
2021/04/26 12:08:46;;;;;;;4.95;2.13;;;24.30;67.80;;;;;;6339411;22;19995;-81
2021/04/26 12:11:20;;;;;;;4.03;1.70;;;24.40;66.70;;;;;;6339352;22;20425;-80
2021/04/26 12:14:14;;;;;;;4.53;2.05;;;24.30;67.10;;;;;;6339503;22;20065;-81
2021/04/26 12:16:40;;;;;;;3.67;2.05;;;24.20;67.10;;;;;;6339150;22;20464;-78
2021/04/26 12:19:06;;;;;;;4.55;2.25;;;24.20;66.20;;;;;;6339611;22;20007;-79
2021/04/26 12:21:34;;;;;;;5.68;2.55;;;23.90;66.00;;;;;;6339087;22;20006;-78
2021/04/26 12:24:00;;;;;;;4.85;2.10;;;24.00;67.50;;;;;;6339037;22;20429;-78
2021/04/26 12:26:26;;;;;;;3.63;1.50;;;24.00;67.30;;;;;;6311610;22;20389;-79
2021/04/26 12:28:52;;;;;;;3.40;1.95;;;24.10;66.80;;;;;;6339025;22;19999;-81
2021/04/26 12:31:30;;;;;;;2.40;1.70;;;24.00;66.00;;;;;;6339097;22;19999;-83
2021/04/26 12:34:09;;;;;;;8.68;2.47;;;24.20;66.00;;;;;;6339087;22;20465;-78
2021/04/26 12:36:36;;;;;;;4.43;2.03;;;24.10;67.20;;;;;;6339136;22;20088;-79
2021/04/26 12:39:02;;;;;;;3.53;1.95;;;24.30;67.60;;;;;;6339406;22;20423;-81
2021/04/26 12:41:39;;;;;;;5.75;2.38;;;24.30;68.80;;;;;;6339101;22;20075;-81
2021/04/26 12:44:06;;;;;;;3.65;2.33;;;24.40;67.20;;;;;;6339188;22;20002;-83
2021/04/26 12:46:39;;;;;;;3.80;2.20;;;24.20;65.80;;;;;;6339170;22;19998;-80
2021/04/26 12:49:19;;;;;;;6.10;2.15;;;24.40;67.70;;;;;;6340027;22;20065;-83
2021/04/26 12:51:45;;;;;;;2.85;1.90;;;24.20;67.00;;;;;;6345982;22;20003;-78
2021/04/26 12:54:11;;;;;;;4.18;2.00;;;24.40;68.50;;;;;;6339183;22;20444;-83
2021/04/26 12:56:38;;;;;;;4.28;1.70;;;24.50;65.30;;;;;;6339029;22;20471;-78
2021/04/26 12:59:04;;;;;;;3.00;1.52;;;24.60;66.80;;;;;;6338872;22;20018;-81
2021/04/26 13:01:31;;;;;;;3.28;1.65;;;24.50;65.60;;;;;;6339396;22;20003;-82
2021/04/26 13:04:00;;;;;;;4.28;2.08;;;24.60;65.00;;;;;;6338577;22;20032;-83
2021/04/26 13:06:29;;;;;;;3.30;1.67;;;24.90;63.00;;;;;;6311372;22;20402;-79
2021/04/26 13:09:01;;;;;;;3.83;1.67;;;25.00;59.20;;;;;;6338912;22;20006;-78